Time;durP1;ratioP1;P1;durP2;ratioP2;P2;SDS_P1;SDS_P2;PMS_P1;PMS_P2;Temp;Humidity;BMP_temperature;BMP_pressure;BME280_temperature;BME280_humidity;BME280_pressure;Samples;Min_cycle;Max_cycle;Signal;HPM_P1;HPM_P2
2023/01/26 00:01:52;;;;;;;80.75;48.72;;;;;;;;;;5071972;28;20204;-78
2023/01/26 00:04:19;;;;;;;84.90;50.13;;;;;;;;;;5072376;28;20730;-77
2023/01/26 00:06:46;;;;;;;60.53;42.85;;;;;;;;;;5072684;28;20207;-77
2023/01/26 00:09:14;;;;;;;62.33;45.83;;;;;;;;;;5072528;28;20277;-77
2023/01/26 00:11:42;;;;;;;83.47;51.50;;;;;;;;;;5072466;28;20548;-78
2023/01/26 00:14:09;;;;;;;62.63;46.00;;;;;;;;;;5073075;28;20251;-78
2023/01/26 00:16:36;;;;;;;74.28;46.78;;;;;;;;;;5073235;28;20201;-77
2023/01/26 00:19:03;;;;;;;74.35;44.97;;;;;;;;;;5072371;28;20197;-77
2023/01/26 00:21:30;;;;;;;74.05;46.22;;;;;;;;;;5072025;28;20203;-78
2023/01/26 00:23:58;;;;;;;69.60;46.08;;;;;;;;;;5073165;28;20215;-76
2023/01/26 00:26:26;;;;;;;72.88;46.13;;;;;;;;;;5076465;28;20231;-77
2023/01/26 00:28:54;;;;;;;69.85;46.28;;;;;;;;;;5076248;28;20225;-77
2023/01/26 00:31:22;;;;;;;81.35;47.47;;;;;;;;;;5075380;28;20207;-78
2023/01/26 00:33:50;;;;;;;62.70;42.72;;;;;;;;;;5076167;28;20212;-78
2023/01/26 00:36:17;;;;;;;77.50;46.20;;;;;;;;;;5075879;28;20224;-77
2023/01/26 00:38:44;;;;;;;72.88;45.22;;;;;;;;;;5075958;28;20233;-77
2023/01/26 00:42:05;;;;;;;73.40;46.17;;;;;;;;;;5075796;28;20203;-79
2023/01/26 00:44:00;;;;;;;73.75;48.08;;;;;;;;;;5075541;28;20204;-77
2023/01/26 00:46:27;;;;;;;82.55;49.40;;;;;;;;;;5075441;28;20705;-77
2023/01/26 00:48:54;;;;;;;78.90;50.80;;;;;;;;;;5075691;28;20224;-77
2023/01/26 00:51:21;;;;;;;79.53;47.47;;;;;;;;;;5075241;28;20200;-77
2023/01/26 00:53:48;;;;;;;78.50;50.42;;;;;;;;;;5075454;28;20261;-77
2023/01/26 00:56:15;;;;;;;76.72;48.25;;;;;;;;;;5075889;28;20233;-77
2023/01/26 00:58:44;;;;;;;80.20;48.85;;;;;;;;;;5075534;28;20305;-77
2023/01/26 01:01:12;;;;;;;82.97;46.40;;;;;;;;;;5075473;28;20211;-78
2023/01/26 01:03:40;;;;;;;80.55;48.35;;;;;;;;;;5074882;28;20223;-77
2023/01/26 01:06:10;;;;;;;73.38;46.47;;;;;;;;;;5075307;28;20239;-77
2023/01/26 01:08:37;;;;;;;71.07;45.50;;;;;;;;;;5075528;28;20207;-78
2023/01/26 01:11:07;;;;;;;81.13;49.90;;;;;;;;;;5075364;28;20204;-77
2023/01/26 01:13:34;;;;;;;78.25;48.10;;;;;;;;;;5074866;28;20204;-78
2023/01/26 01:16:04;;;;;;;85.63;49.65;;;;;;;;;;5075341;28;20228;-77
2023/01/26 01:18:33;;;;;;;82.32;49.97;;;;;;;;;;5075396;28;20235;-75
2023/01/26 01:21:00;;;;;;;86.28;50.97;;;;;;;;;;5074762;28;20204;-77
2023/01/26 01:23:28;;;;;;;78.10;45.72;;;;;;;;;;5073917;28;20665;-75
2023/01/26 01:25:58;;;;;;;81.78;50.55;;;;;;;;;;5074864;28;20224;-76
2023/01/26 01:28:26;;;;;;;93.40;52.60;;;;;;;;;;5074758;28;20697;-76
2023/01/26 01:30:53;;;;;;;86.82;52.55;;;;;;;;;;5074787;28;20203;-76
2023/01/26 01:33:20;;;;;;;88.45;48.75;;;;;;;;;;5073876;28;20674;-77
2023/01/26 01:35:57;;;;;;;80.32;48.70;;;;;;;;;;5074413;28;20223;-76
2023/01/26 01:38:24;;;;;;;79.72;50.00;;;;;;;;;;5074692;28;20186;-75
2023/01/26 01:40:51;;;;;;;75.60;46.95;;;;;;;;;;5074684;28;20211;-76
2023/01/26 01:43:19;;;;;;;73.15;46.67;;;;;;;;;;5074019;28;20203;-75
2023/01/26 01:45:46;;;;;;;83.90;50.53;;;;;;;;;;5074536;28;20293;-77
2023/01/26 01:48:21;;;;;;;82.47;49.92;;;;;;;;;;5074052;28;20223;-76
2023/01/26 01:50:49;;;;;;;74.85;46.97;;;;;;;;;;5074392;28;20249;-77
2023/01/26 01:53:23;;;;;;;96.50;53.42;;;;;;;;;;5073748;28;20666;-76
2023/01/26 01:55:50;;;;;;;72.40;48.67;;;;;;;;;;5074502;28;20279;-76
2023/01/26 01:58:18;;;;;;;83.70;47.15;;;;;;;;;;5074140;28;20241;-76
2023/01/26 02:00:45;;;;;;;85.25;49.90;;;;;;;;;;5074350;28;20269;-75
2023/01/26 02:03:13;;;;;;;74.85;48.20;;;;;;;;;;5073316;28;20212;-76
2023/01/26 02:05:42;;;;;;;83.47;49.08;;;;;;;;;;5073896;28;20223;-76
2023/01/26 02:08:10;;;;;;;82.85;48.63;;;;;;;;;;5074076;28;20216;-77
2023/01/26 02:10:38;;;;;;;91.10;47.95;;;;;;;;;;5073760;28;20661;-77
2023/01/26 02:13:06;;;;;;;82.93;52.13;;;;;;;;;;5073340;28;20201;-76
2023/01/26 02:15:33;;;;;;;81.88;49.65;;;;;;;;;;5073803;28;20224;-75
2023/01/26 02:18:01;;;;;;;88.85;50.45;;;;;;;;;;5073513;28;20734;-76
2023/01/26 02:20:33;;;;;;;79.10;47.63;;;;;;;;;;5073752;28;20258;-76
2023/01/26 02:23:01;;;;;;;83.25;46.55;;;;;;;;;;5073119;28;20542;-75
2023/01/26 02:25:33;;;;;;;86.03;50.53;;;;;;;;;;5073738;28;20227;-76
2023/01/26 02:28:02;;;;;;;78.88;48.13;;;;;;;;;;5073622;28;20244;-77
2023/01/26 02:30:29;;;;;;;93.53;51.05;;;;;;;;;;5073924;28;20207;-76
2023/01/26 02:32:56;;;;;;;87.13;48.40;;;;;;;;;;5072773;28;20673;-76
2023/01/26 02:35:23;;;;;;;88.38;47.83;;;;;;;;;;5073520;28;20587;-75
2023/01/26 02:37:50;;;;;;;93.13;49.58;;;;;;;;;;5073563;28;20203;-75
2023/01/26 02:40:21;;;;;;;84.25;49.65;;;;;;;;;;5073533;28;20253;-76
2023/01/26 02:42:47;;;;;;;97.93;52.78;;;;;;;;;;5072929;28;20241;-77
2023/01/26 02:45:16;;;;;;;87.00;50.97;;;;;;;;;;5073802;28;20215;-76
2023/01/26 02:47:44;;;;;;;96.53;49.53;;;;;;;;;;5072659;28;20208;-76
2023/01/26 02:50:10;;;;;;;80.15;46.00;;;;;;;;;;5073020;28;20226;-77
2023/01/26 02:52:38;;;;;;;75.65;45.13;;;;;;;;;;5072865;28;20209;-76
2023/01/26 02:55:21;;;;;;;95.80;52.72;;;;;;;;;;5073510;28;20310;-76
2023/01/26 02:57:48;;;;;;;73.65;45.58;;;;;;;;;;5073454;28;20188;-75
2023/01/26 03:00:17;;;;;;;90.35;48.15;;;;;;;;;;5073229;28;20200;-75
2023/01/26 03:02:45;;;;;;;82.85;47.40;;;;;;;;;;5072263;28;20214;-75
2023/01/26 03:05:12;;;;;;;89.60;51.35;;;;;;;;;;5073177;28;20629;-76
2023/01/26 03:07:39;;;;;;;93.20;50.25;;;;;;;;;;5073044;28;20259;-75
2023/01/26 03:10:07;;;;;;;96.25;51.85;;;;;;;;;;5073020;28;20276;-76
2023/01/26 03:12:34;;;;;;;73.55;46.50;;;;;;;;;;5072427;28;20207;-75
2023/01/26 03:17:47;;;;;;;94.95;48.03;;;;;;;;;;5073086;28;20284;-77
2023/01/26 03:28:31;;;;;;;81.28;46.42;;;;;;;;;;5046859;28;20252;-75
2023/01/26 03:30:58;;;;;;;98.00;51.17;;;;;;;;;;5072666;28;20231;-76
2023/01/26 03:33:26;;;;;;;83.80;48.78;;;;;;;;;;5071721;28;20213;-76
2023/01/26 03:35:55;;;;;;;82.82;48.03;;;;;;;;;;5073021;28;20220;-77
2023/01/26 03:38:22;;;;;;;96.00;48.42;;;;;;;;;;5072845;28;20233;-76
2023/01/26 03:57:18;;;;;;;81.75;49.10;;;;;;;;;;5072752;28;20183;-75
2023/01/26 03:59:45;;;;;;;81.85;48.08;;;;;;;;;;5076123;28;20195;-76
2023/01/26 04:10:28;;;;;;;87.22;53.38;;;;;;;;;;5075936;28;20218;-76
2023/01/26 04:21:30;;;;;;;137.63;77.25;;;;;;;;;;5075902;28;20763;-76
2023/01/26 04:23:58;;;;;;;92.07;58.72;;;;;;;;;;5075927;28;20203;-77
2023/01/26 04:26:25;;;;;;;108.45;61.60;;;;;;;;;;5075916;28;20274;-77
2023/01/26 04:28:52;;;;;;;92.35;53.78;;;;;;;;;;5075971;28;20219;-76
2023/01/26 04:31:19;;;;;;;104.68;69.25;;;;;;;;;;5075186;28;20666;-77
2023/01/26 04:33:46;;;;;;;69.50;43.85;;;;;;;;;;5076137;28;20192;-77
2023/01/26 04:36:14;;;;;;;89.35;54.67;;;;;;;;;;5075638;28;20224;-77
2023/01/26 04:38:42;;;;;;;97.35;64.00;;;;;;;;;;5075920;28;20205;-75
2023/01/26 04:41:09;;;;;;;102.38;53.38;;;;;;;;;;5075658;28;20210;-75
2023/01/26 04:43:36;;;;;;;81.15;49.70;;;;;;;;;;5075164;28;20209;-76
2023/01/26 04:46:03;;;;;;;94.65;49.30;;;;;;;;;;5075536;28;20719;-76
2023/01/26 04:48:31;;;;;;;96.70;52.95;;;;;;;;;;5075716;28;20208;-76
2023/01/26 04:50:59;;;;;;;64.25;41.70;;;;;;;;;;5075506;28;20237;-75
2023/01/26 04:53:28;;;;;;;80.40;46.30;;;;;;;;;;5075003;28;20585;-75
2023/01/26 04:55:56;;;;;;;83.60;44.38;;;;;;;;;;5075243;28;20220;-77
2023/01/26 04:58:22;;;;;;;84.45;45.90;;;;;;;;;;5075103;28;20588;-76
2023/01/26 05:00:53;;;;;;;79.57;47.78;;;;;;;;;;5075359;28;20209;-77
2023/01/26 05:03:20;;;;;;;96.15;49.72;;;;;;;;;;5074355;28;20691;-75
2023/01/26 05:05:49;;;;;;;87.13;51.72;;;;;;;;;;5075275;28;20298;-76
2023/01/26 05:08:16;;;;;;;92.43;51.72;;;;;;;;;;5075141;28;20208;-76
2023/01/26 05:10:44;;;;;;;87.15;48.03;;;;;;;;;;5074481;28;20229;-77
2023/01/26 05:13:11;;;;;;;97.03;54.58;;;;;;;;;;5074422;28;20257;-76
2023/01/26 05:15:38;;;;;;;85.95;47.40;;;;;;;;;;5075139;28;20227;-75
2023/01/26 05:18:06;;;;;;;97.72;50.67;;;;;;;;;;5074898;28;20502;-77
2023/01/26 05:20:33;;;;;;;105.25;53.83;;;;;;;;;;5074860;28;20312;-77
2023/01/26 05:23:00;;;;;;;102.07;50.75;;;;;;;;;;5074323;28;20208;-77
2023/01/26 05:25:27;;;;;;;97.85;49.45;;;;;;;;;;5074842;28;20632;-77
2023/01/26 05:27:55;;;;;;;98.70;51.30;;;;;;;;;;5074443;28;20722;-76
2023/01/26 05:30:22;;;;;;;82.00;48.95;;;;;;;;;;5074500;28;20693;-75
2023/01/26 05:32:49;;;;;;;89.38;48.63;;;;;;;;;;5074178;28;20203;-76
2023/01/26 05:35:16;;;;;;;89.47;51.08;;;;;;;;;;5074699;28;20273;-76
2023/01/26 05:37:44;;;;;;;83.35;48.42;;;;;;;;;;5074677;28;20593;-76
2023/01/26 05:40:12;;;;;;;90.32;49.17;;;;;;;;;;5074319;28;20212;-75
2023/01/26 05:42:39;;;;;;;91.75;49.38;;;;;;;;;;5073350;28;20212;-77
2023/01/26 05:45:08;;;;;;;93.25;50.08;;;;;;;;;;5074386;28;20637;-77
2023/01/26 05:47:35;;;;;;;85.75;48.45;;;;;;;;;;5074380;28;20213;-76
2023/01/26 05:50:02;;;;;;;83.55;48.58;;;;;;;;;;5073947;28;20269;-76
2023/01/26 05:52:29;;;;;;;64.25;38.08;;;;;;;;;;5073617;28;20201;-75
2023/01/26 05:54:56;;;;;;;72.55;46.20;;;;;;;;;;5074019;28;20233;-76
2023/01/26 05:57:23;;;;;;;88.88;47.45;;;;;;;;;;5074185;28;20258;-77
2023/01/26 05:59:50;;;;;;;89.45;51.13;;;;;;;;;;5074336;28;20202;-77
2023/01/26 06:02:18;;;;;;;81.22;45.15;;;;;;;;;;5072011;28;20216;-75
2023/01/26 06:04:45;;;;;;;80.13;48.30;;;;;;;;;;5073606;28;20219;-76
2023/01/26 06:07:12;;;;;;;72.60;48.95;;;;;;;;;;5073675;28;20203;-76
2023/01/26 06:09:39;;;;;;;79.47;49.72;;;;;;;;;;5073465;28;20224;-76
2023/01/26 06:12:06;;;;;;;84.57;47.90;;;;;;;;;;5072195;28;20707;-80
2023/01/26 06:14:33;;;;;;;72.57;47.13;;;;;;;;;;5073719;28;20227;-76
2023/01/26 06:17:00;;;;;;;74.47;42.13;;;;;;;;;;5073144;28;20200;-77
2023/01/26 06:19:29;;;;;;;73.25;46.78;;;;;;;;;;5073759;28;20195;-76
2023/01/26 06:21:56;;;;;;;75.28;47.30;;;;;;;;;;5072411;28;20256;-75
2023/01/26 06:24:23;;;;;;;89.03;50.65;;;;;;;;;;5073782;28;20262;-76
2023/01/26 06:26:50;;;;;;;66.47;42.08;;;;;;;;;;5072820;28;20208;-76
2023/01/26 06:29:17;;;;;;;81.45;46.50;;;;;;;;;;5073067;28;20229;-76
2023/01/26 06:31:44;;;;;;;73.70;44.60;;;;;;;;;;5072228;28;20685;-76
2023/01/26 06:34:11;;;;;;;77.30;48.83;;;;;;;;;;5073558;28;20628;-76
2023/01/26 06:36:40;;;;;;;69.95;48.85;;;;;;;;;;5073588;28;20207;-77
2023/01/26 06:39:07;;;;;;;72.80;45.75;;;;;;;;;;5073355;28;20613;-75
2023/01/26 06:41:34;;;;;;;75.68;45.83;;;;;;;;;;5072423;28;20214;-75
2023/01/26 06:44:01;;;;;;;68.70;42.95;;;;;;;;;;5073511;28;20216;-77
2023/01/26 06:46:28;;;;;;;79.22;49.53;;;;;;;;;;5072872;28;20223;-75
2023/01/26 06:48:55;;;;;;;71.55;45.58;;;;;;;;;;5073080;28;20613;-77
2023/01/26 06:51:42;;;;;;;72.70;46.60;;;;;;;;;;5072075;28;20227;-77
2023/01/26 06:54:10;;;;;;;77.15;46.15;;;;;;;;;;5072860;28;20241;-76
2023/01/26 06:56:37;;;;;;;73.20;43.42;;;;;;;;;;5072459;28;20199;-77
2023/01/26 06:59:05;;;;;;;76.40;45.10;;;;;;;;;;5072174;28;20200;-77
2023/01/26 07:01:34;;;;;;;73.90;46.08;;;;;;;;;;5071927;28;20206;-77
2023/01/26 07:04:01;;;;;;;71.13;45.45;;;;;;;;;;5072743;28;20188;-76
2023/01/26 07:06:27;;;;;;;82.15;47.78;;;;;;;;;;5072975;28;20225;-76
2023/01/26 07:08:56;;;;;;;80.55;44.97;;;;;;;;;;5073781;28;20258;-78
2023/01/26 07:11:24;;;;;;;76.15;43.97;;;;;;;;;;5072396;28;20264;-76
2023/01/26 07:13:51;;;;;;;60.85;42.22;;;;;;;;;;5073187;28;20240;-76
2023/01/26 07:16:19;;;;;;;78.82;44.90;;;;;;;;;;5073105;28;20222;-76
2023/01/26 07:18:45;;;;;;;72.65;45.78;;;;;;;;;;5072659;28;20199;-75
2023/01/26 07:21:13;;;;;;;73.63;45.53;;;;;;;;;;5072784;28;20951;-77
2023/01/26 07:23:41;;;;;;;76.97;44.50;;;;;;;;;;5072798;28;20254;-76
2023/01/26 07:26:09;;;;;;;49.97;37.92;;;;;;;;;;5073070;28;20306;-76
2023/01/26 07:28:36;;;;;;;70.50;44.97;;;;;;;;;;5073400;28;20206;-77
2023/01/26 07:31:04;;;;;;;67.00;42.55;;;;;;;;;;5072915;28;20277;-76
2023/01/26 07:33:32;;;;;;;77.85;45.30;;;;;;;;;;5074433;28;20242;-76
2023/01/26 07:35:59;;;;;;;72.82;44.92;;;;;;;;;;5076630;28;20771;-76
2023/01/26 07:38:27;;;;;;;70.68;41.22;;;;;;;;;;5077066;28;20566;-76
2023/01/26 07:40:54;;;;;;;73.25;44.47;;;;;;;;;;5076816;28;20209;-76
2023/01/26 07:43:22;;;;;;;63.72;43.42;;;;;;;;;;5076257;28;20199;-76
2023/01/26 07:45:50;;;;;;;61.05;42.55;;;;;;;;;;5076524;28;20223;-74
2023/01/26 07:48:17;;;;;;;77.05;44.45;;;;;;;;;;5076682;28;20209;-73
2023/01/26 07:50:46;;;;;;;80.90;47.20;;;;;;;;;;5076228;28;20220;-74
2023/01/26 07:53:14;;;;;;;65.43;43.38;;;;;;;;;;5076000;28;20218;-76
2023/01/26 07:55:42;;;;;;;82.60;45.42;;;;;;;;;;5076165;28;20780;-78
2023/01/26 07:58:09;;;;;;;72.97;44.83;;;;;;;;;;5076703;28;20216;-74
2023/01/26 08:00:38;;;;;;;77.72;51.53;;;;;;;;;;5075951;28;20672;-74
2023/01/26 08:03:05;;;;;;;76.25;48.75;;;;;;;;;;5075457;28;20673;-74
2023/01/26 08:05:34;;;;;;;68.38;42.05;;;;;;;;;;5076233;28;20253;-76
2023/01/26 08:08:01;;;;;;;69.57;43.28;;;;;;;;;;5076117;28;20678;-77
2023/01/26 08:10:30;;;;;;;56.75;39.58;;;;;;;;;;5075537;28;20632;-76
2023/01/26 08:12:57;;;;;;;58.90;38.22;;;;;;;;;;5075476;28;20204;-75
2023/01/26 08:15:24;;;;;;;56.85;40.25;;;;;;;;;;5075934;28;20231;-75
2023/01/26 08:17:53;;;;;;;70.97;45.05;;;;;;;;;;5076126;28;20277;-74
2023/01/26 08:20:20;;;;;;;56.33;39.22;;;;;;;;;;5075719;28;20208;-75
2023/01/26 08:22:47;;;;;;;72.18;43.97;;;;;;;;;;5075422;28;20204;-74
2023/01/26 08:25:14;;;;;;;67.90;43.55;;;;;;;;;;5075280;28;20224;-74
2023/01/26 08:27:41;;;;;;;69.57;41.60;;;;;;;;;;5075971;28;20216;-74
2023/01/26 08:30:09;;;;;;;75.80;45.35;;;;;;;;;;5075798;28;20226;-75
2023/01/26 08:32:36;;;;;;;75.38;43.00;;;;;;;;;;5075117;28;20199;-74
2023/01/26 08:35:05;;;;;;;72.30;46.30;;;;;;;;;;5075667;28;20573;-74
2023/01/26 08:37:32;;;;;;;76.55;48.22;;;;;;;;;;5075645;28;20262;-75
2023/01/26 08:39:59;;;;;;;73.22;45.10;;;;;;;;;;5075876;28;20208;-74
2023/01/26 08:42:26;;;;;;;59.55;41.95;;;;;;;;;;5075052;28;20204;-74
2023/01/26 08:44:53;;;;;;;81.22;47.80;;;;;;;;;;5074148;28;20289;-73
2023/01/26 08:47:20;;;;;;;79.53;45.20;;;;;;;;;;5075480;28;20208;-73
2023/01/26 08:49:47;;;;;;;76.63;46.50;;;;;;;;;;5075685;28;20259;-73
2023/01/26 08:52:15;;;;;;;80.10;46.50;;;;;;;;;;5075124;28;20254;-74
2023/01/26 08:54:42;;;;;;;72.03;46.05;;;;;;;;;;5075598;28;20220;-74
2023/01/26 08:57:10;;;;;;;81.97;43.60;;;;;;;;;;5075848;28;20310;-74
2023/01/26 08:59:37;;;;;;;74.00;41.92;;;;;;;;;;5075462;28;20244;-73
2023/01/26 09:02:04;;;;;;;72.43;42.30;;;;;;;;;;5074569;28;20626;-74
2023/01/26 09:04:31;;;;;;;72.97;46.03;;;;;;;;;;5075218;28;20582;-74
2023/01/26 09:06:58;;;;;;;77.13;46.58;;;;;;;;;;5075053;28;20204;-74
2023/01/26 09:09:27;;;;;;;77.47;45.72;;;;;;;;;;5075228;28;20234;-75
2023/01/26 09:11:55;;;;;;;68.72;44.55;;;;;;;;;;5074198;28;20230;-74
2023/01/26 09:14:22;;;;;;;75.75;46.03;;;;;;;;;;5074735;28;20205;-76
2023/01/26 09:16:49;;;;;;;71.70;43.10;;;;;;;;;;5075095;28;20206;-75
2023/01/26 09:19:16;;;;;;;63.40;42.00;;;;;;;;;;5075035;28;20250;-77
2023/01/26 09:21:43;;;;;;;59.83;38.85;;;;;;;;;;5074268;28;20208;-77
2023/01/26 09:24:10;;;;;;;62.55;41.42;;;;;;;;;;5074812;28;20201;-76
2023/01/26 09:26:38;;;;;;;68.57;43.63;;;;;;;;;;5074637;28;20559;-76
2023/01/26 09:29:05;;;;;;;60.50;38.95;;;;;;;;;;5074496;28;20756;-76
2023/01/26 09:31:32;;;;;;;72.65;43.30;;;;;;;;;;5073806;28;21023;-77
2023/01/26 09:33:59;;;;;;;52.63;37.50;;;;;;;;;;5074804;28;20603;-75
2023/01/26 09:36:26;;;;;;;58.97;38.55;;;;;;;;;;5073738;28;20631;-77
2023/01/26 09:38:53;;;;;;;64.85;40.60;;;;;;;;;;5074004;28;20629;-76
2023/01/26 09:41:34;;;;;;;58.60;39.75;;;;;;;;;;5073961;28;20197;-76
2023/01/26 09:44:05;;;;;;;64.15;43.90;;;;;;;;;;5074610;28;20193;-76
2023/01/26 09:46:38;;;;;;;63.20;39.67;;;;;;;;;;5074455;28;20189;-76
2023/01/26 09:49:06;;;;;;;55.53;39.53;;;;;;;;;;5074659;28;20587;-75
2023/01/26 09:51:35;;;;;;;46.10;35.88;;;;;;;;;;5073105;28;20232;-76
2023/01/26 09:54:04;;;;;;;55.65;39.53;;;;;;;;;;5074410;28;20561;-75
2023/01/26 09:56:32;;;;;;;60.10;41.30;;;;;;;;;;5073728;28;20207;-76
2023/01/26 09:59:01;;;;;;;41.65;34.53;;;;;;;;;;5074120;28;20209;-76
2023/01/26 10:01:36;;;;;;;49.72;36.85;;;;;;;;;;5073673;28;20204;-76
2023/01/26 10:04:06;;;;;;;53.03;38.70;;;;;;;;;;5074175;28;20241;-75
2023/01/26 10:06:33;;;;;;;54.42;39.38;;;;;;;;;;5074012;28;20246;-75
2023/01/26 10:09:02;;;;;;;53.97;38.30;;;;;;;;;;5074231;28;20256;-77
2023/01/26 10:11:31;;;;;;;55.10;40.28;;;;;;;;;;5072649;28;20238;-77
2023/01/26 10:14:02;;;;;;;53.45;38.50;;;;;;;;;;5074004;28;20216;-76
2023/01/26 10:16:33;;;;;;;59.08;38.85;;;;;;;;;;5073478;28;20204;-77
2023/01/26 10:19:03;;;;;;;54.65;39.55;;;;;;;;;;5073627;28;20695;-76
2023/01/26 10:21:32;;;;;;;64.43;38.95;;;;;;;;;;5073431;28;20203;-77
2023/01/26 10:24:01;;;;;;;54.95;38.55;;;;;;;;;;5073980;28;20236;-77
2023/01/26 10:26:31;;;;;;;54.42;37.72;;;;;;;;;;5073078;28;20238;-76
2023/01/26 10:28:58;;;;;;;61.15;41.08;;;;;;;;;;5073509;28;20201;-76
2023/01/26 10:31:27;;;;;;;60.65;41.30;;;;;;;;;;5073228;28;20274;-77
2023/01/26 10:33:56;;;;;;;64.22;42.75;;;;;;;;;;5073641;28;20199;-76
2023/01/26 10:36:24;;;;;;;56.60;41.72;;;;;;;;;;5073575;28;20298;-76
2023/01/26 10:38:51;;;;;;;61.42;39.88;;;;;;;;;;5073526;28;20251;-77
2023/01/26 10:41:26;;;;;;;57.17;39.65;;;;;;;;;;5073180;28;20233;-77
2023/01/26 10:43:54;;;;;;;60.95;40.38;;;;;;;;;;5073675;28;20207;-77
2023/01/26 10:46:26;;;;;;;61.83;39.72;;;;;;;;;;5073582;28;20232;-76
2023/01/26 10:48:54;;;;;;;57.47;39.55;;;;;;;;;;5072957;28;20208;-77
2023/01/26 10:51:24;;;;;;;52.15;36.92;;;;;;;;;;5072651;28;20571;-77
2023/01/26 10:53:51;;;;;;;41.58;33.15;;;;;;;;;;5073351;28;20251;-77
2023/01/26 10:56:19;;;;;;;56.10;38.28;;;;;;;;;;5073319;28;20224;-77
2023/01/26 10:58:48;;;;;;;54.28;40.47;;;;;;;;;;5073834;28;20263;-76
2023/01/26 11:01:17;;;;;;;30.75;27.45;;;;;;;;;;5073200;28;20205;-76
2023/01/26 11:03:59;;;;;;;53.28;36.15;;;;;;;;;;5073238;28;20223;-77
2023/01/26 11:06:29;;;;;;;51.80;38.17;;;;;;;;;;5073065;28;20228;-77
2023/01/26 11:09:08;;;;;;;59.35;36.92;;;;;;;;;;5072662;28;20239;-73
2023/01/26 11:11:36;;;;;;;50.42;35.65;;;;;;;;;;5072313;28;20220;-74
2023/01/26 11:14:13;;;;;;;55.83;38.90;;;;;;;;;;5072896;28;20202;-74
2023/01/26 11:16:41;;;;;;;55.75;37.38;;;;;;;;;;5072941;28;20221;-74
2023/01/26 11:19:13;;;;;;;48.28;36.60;;;;;;;;;;5087862;28;20196;-73
2023/01/26 11:21:46;;;;;;;53.45;37.10;;;;;;;;;;5092652;28;20242;-77
2023/01/26 11:24:16;;;;;;;56.53;38.70;;;;;;;;;;5093214;28;20190;-77
2023/01/26 11:26:51;;;;;;;68.00;42.88;;;;;;;;;;5083716;28;20199;-78
2023/01/26 11:29:33;;;;;;;51.95;38.55;;;;;;;;;;5092832;28;20208;-76
2023/01/26 11:32:04;;;;;;;55.50;37.58;;;;;;;;;;5083318;28;20744;-77
2023/01/26 11:34:36;;;;;;;49.95;39.05;;;;;;;;;;5073021;28;20233;-77
2023/01/26 11:37:22;;;;;;;58.90;40.20;;;;;;;;;;5072896;28;20193;-77
2023/01/26 11:39:55;;;;;;;55.22;39.90;;;;;;;;;;5072990;28;20250;-76
2023/01/26 11:42:25;;;;;;;60.60;43.95;;;;;;;;;;5071915;28;20546;-77
2023/01/26 11:45:02;;;;;;;57.80;40.10;;;;;;;;;;5089129;28;20339;-76
2023/01/26 11:47:35;;;;;;;52.45;38.40;;;;;;;;;;5092005;28;20183;-78
2023/01/26 11:50:07;;;;;;;52.97;37.30;;;;;;;;;;5092991;28;20183;-76
2023/01/26 11:52:41;;;;;;;72.32;49.53;;;;;;;;;;5080092;28;20214;-76
2023/01/26 11:55:17;;;;;;;33.83;30.33;;;;;;;;;;5072806;28;20232;-76
2023/01/26 11:57:48;;;;;;;55.75;37.20;;;;;;;;;;5072736;28;20198;-77
2023/01/26 12:00:17;;;;;;;85.15;52.00;;;;;;;;;;5072638;28;20201;-75
2023/01/26 12:02:54;;;;;;;47.65;37.75;;;;;;;;;;5071821;28;20579;-76
2023/01/26 12:05:24;;;;;;;48.63;38.92;;;;;;;;;;5071833;28;20228;-76
2023/01/26 12:07:55;;;;;;;49.83;36.65;;;;;;;;;;5072593;28;20209;-76
2023/01/26 12:10:24;;;;;;;45.88;33.97;;;;;;;;;;5072471;28;20286;-76
2023/01/26 12:12:54;;;;;;;39.83;33.70;;;;;;;;;;5071851;28;20232;-77
2023/01/26 12:15:26;;;;;;;52.97;38.80;;;;;;;;;;5072161;28;20225;-76
2023/01/26 12:17:58;;;;;;;41.53;33.85;;;;;;;;;;5072274;28;20208;-78
2023/01/26 12:20:29;;;;;;;47.53;35.30;;;;;;;;;;5075651;28;20193;-76
2023/01/26 12:23:01;;;;;;;50.70;36.50;;;;;;;;;;5075491;28;20246;-77
2023/01/26 12:25:30;;;;;;;43.70;35.92;;;;;;;;;;5076002;28;20271;-76
2023/01/26 12:27:59;;;;;;;42.67;34.20;;;;;;;;;;5075588;28;20201;-77
2023/01/26 12:30:34;;;;;;;39.17;35.00;;;;;;;;;;5075570;28;20213;-76
2023/01/26 12:33:02;;;;;;;42.17;33.47;;;;;;;;;;5074866;28;20218;-77
2023/01/26 12:35:35;;;;;;;39.58;32.05;;;;;;;;;;5075924;28;20567;-77
2023/01/26 12:38:06;;;;;;;46.42;33.03;;;;;;;;;;5075716;28;20189;-76
2023/01/26 12:40:36;;;;;;;41.20;33.72;;;;;;;;;;5075629;28;20206;-76
2023/01/26 12:43:15;;;;;;;44.67;34.53;;;;;;;;;;5075365;28;20215;-76
2023/01/26 12:45:43;;;;;;;42.65;34.72;;;;;;;;;;5075576;28;20273;-76
2023/01/26 12:48:13;;;;;;;36.70;32.30;;;;;;;;;;5075362;28;20729;-76
2023/01/26 12:50:44;;;;;;;36.92;31.08;;;;;;;;;;5075178;28;20259;-76
2023/01/26 12:53:15;;;;;;;38.13;31.42;;;;;;;;;;5074817;28;20670;-76
2023/01/26 12:55:44;;;;;;;33.80;29.40;;;;;;;;;;5075393;28;20288;-77
2023/01/26 12:58:13;;;;;;;40.00;32.72;;;;;;;;;;5075744;28;20201;-76
2023/01/26 13:00:40;;;;;;;37.47;30.77;;;;;;;;;;5075218;28;20209;-77
2023/01/26 13:03:15;;;;;;;35.83;28.33;;;;;;;;;;5074197;28;20630;-76
2023/01/26 13:05:55;;;;;;;42.72;32.10;;;;;;;;;;5074993;28;20563;-76
2023/01/26 13:08:52;;;;;;;32.65;29.25;;;;;;;;;;5075355;28;20213;-76
2023/01/26 13:11:34;;;;;;;39.50;31.52;;;;;;;;;;5074506;28;20198;-76
2023/01/26 13:14:01;;;;;;;34.33;30.23;;;;;;;;;;5074667;28;20226;-76
2023/01/26 13:16:34;;;;;;;36.80;30.27;;;;;;;;;;5074282;28;20636;-76
2023/01/26 13:19:02;;;;;;;34.38;30.80;;;;;;;;;;5074800;28;20674;-76
2023/01/26 13:21:29;;;;;;;38.80;33.10;;;;;;;;;;5074229;28;20206;-76
2023/01/26 13:23:58;;;;;;;43.33;33.35;;;;;;;;;;5074627;28;20204;-75
2023/01/26 13:26:42;;;;;;;37.97;31.67;;;;;;;;;;5074657;28;20759;-76
2023/01/26 13:29:27;;;;;;;33.75;30.02;;;;;;;;;;5074787;28;20190;-76
2023/01/26 13:31:55;;;;;;;33.22;29.35;;;;;;;;;;5072216;28;20225;-76
2023/01/26 13:34:23;;;;;;;37.05;32.40;;;;;;;;;;5074128;28;20666;-76
2023/01/26 13:36:52;;;;;;;34.72;31.00;;;;;;;;;;5074335;28;20671;-76
2023/01/26 13:39:23;;;;;;;35.25;29.52;;;;;;;;;;5074487;28;20681;-76
2023/01/26 13:41:49;;;;;;;33.80;30.38;;;;;;;;;;5073724;28;20231;-76
2023/01/26 13:44:19;;;;;;;35.03;31.23;;;;;;;;;;5074192;28;20229;-76
2023/01/26 13:46:49;;;;;;;33.63;30.00;;;;;;;;;;5074445;28;20274;-76
2023/01/26 13:49:25;;;;;;;35.03;30.13;;;;;;;;;;5074397;28;20194;-75
2023/01/26 13:51:52;;;;;;;33.38;29.90;;;;;;;;;;5073791;28;20208;-76
2023/01/26 13:54:28;;;;;;;32.72;29.20;;;;;;;;;;5074320;28;20255;-78
2023/01/26 13:57:01;;;;;;;34.50;30.80;;;;;;;;;;5074711;28;20194;-75
2023/01/26 13:59:29;;;;;;;33.85;29.90;;;;;;;;;;5075480;28;20210;-85
2023/01/26 14:01:56;;;;;;;35.05;31.30;;;;;;;;;;5078007;28;20212;-84
2023/01/26 14:04:24;;;;;;;34.90;31.20;;;;;;;;;;5077448;28;20200;-84
2023/01/26 14:06:53;;;;;;;34.22;30.67;;;;;;;;;;5079401;28;20200;-76
2023/01/26 14:09:21;;;;;;;40.72;33.63;;;;;;;;;;5073609;28;20207;-76
2023/01/26 14:11:57;;;;;;;30.63;27.63;;;;;;;;;;5073342;28;20254;-76
2023/01/26 14:14:25;;;;;;;32.67;29.27;;;;;;;;;;5084797;28;20598;-76
2023/01/26 14:16:52;;;;;;;35.25;31.65;;;;;;;;;;5081795;28;20243;-77
2023/01/26 14:19:19;;;;;;;34.10;29.50;;;;;;;;;;5073686;28;20262;-75
2023/01/26 14:21:48;;;;;;;30.70;27.83;;;;;;;;;;5072894;28;20210;-76
2023/01/26 14:24:15;;;;;;;32.55;29.55;;;;;;;;;;5076234;28;20206;-76
2023/01/26 14:26:44;;;;;;;34.90;31.30;;;;;;;;;;5072937;28;20235;-77
2023/01/26 14:29:12;;;;;;;36.47;32.53;;;;;;;;;;5073656;28;20205;-76
2023/01/26 14:31:39;;;;;;;36.13;32.10;;;;;;;;;;5072909;28;20218;-77
2023/01/26 14:34:10;;;;;;;33.00;28.30;;;;;;;;;;5073277;28;20212;-77
2023/01/26 14:36:38;;;;;;;28.30;25.83;;;;;;;;;;5073180;28;20197;-76
2023/01/26 14:39:11;;;;;;;29.73;26.83;;;;;;;;;;5073334;28;20590;-77
2023/01/26 14:41:38;;;;;;;31.50;28.40;;;;;;;;;;5072820;28;20197;-78
2023/01/26 14:44:06;;;;;;;31.00;27.90;;;;;;;;;;5072166;28;20210;-78
2023/01/26 14:46:41;;;;;;;34.13;30.73;;;;;;;;;;5073785;28;20251;-77
2023/01/26 14:49:11;;;;;;;31.90;28.70;;;;;;;;;;5074303;28;20205;-77
2023/01/26 14:51:38;;;;;;;29.55;26.88;;;;;;;;;;5072803;28;20616;-77
2023/01/26 14:54:10;;;;;;;30.40;27.58;;;;;;;;;;5073060;28;20270;-75
2023/01/26 14:56:38;;;;;;;30.55;27.58;;;;;;;;;;5072630;28;20216;-76
2023/01/26 14:59:08;;;;;;;31.85;28.70;;;;;;;;;;5073106;28;20213;-75
2023/01/26 15:01:35;;;;;;;31.85;28.65;;;;;;;;;;5072013;28;20204;-76
2023/01/26 15:04:03;;;;;;;32.15;29.15;;;;;;;;;;5073161;28;20184;-76
2023/01/26 15:06:31;;;;;;;32.33;29.00;;;;;;;;;;5072713;28;20209;-76
2023/01/26 15:08:59;;;;;;;31.08;28.13;;;;;;;;;;5073126;28;20571;-76
2023/01/26 15:14:34;;;;;;;33.10;29.90;;;;;;;;;;5072706;28;20628;-78